createdAt,value
2018-12-02T00:00:59.606Z,990.59
2018-12-02T00:02:04.774Z,990.57
2018-12-02T00:03:10.938Z,990.59
2018-12-02T00:04:17.100Z,990.54
2018-12-02T00:05:23.282Z,990.52
2018-12-02T00:06:29.448Z,990.53
2018-12-02T00:07:35.613Z,990.48
2018-12-02T00:08:41.790Z,990.49
2018-12-02T00:09:47.943Z,990.47
2018-12-02T00:10:54.115Z,990.43
2018-12-02T00:12:00.274Z,990.51
2018-12-02T00:13:06.443Z,990.51
2018-12-02T00:14:12.607Z,990.49
2018-12-02T00:15:18.784Z,990.49
2018-12-02T00:16:24.944Z,990.51
2018-12-02T00:17:31.097Z,990.51
2018-12-02T00:18:37.271Z,990.55
2018-12-02T00:19:43.434Z,990.53
2018-12-02T00:20:49.614Z,990.54
2018-12-02T00:21:55.769Z,990.51
2018-12-02T00:23:01.959Z,990.50
2018-12-02T00:24:08.112Z,990.47
2018-12-02T00:25:14.282Z,990.49
2018-12-02T00:26:20.444Z,990.47
2018-12-02T00:27:26.595Z,990.51
2018-12-02T00:28:32.767Z,990.47
2018-12-02T00:29:38.945Z,990.50
2018-12-02T00:30:46.101Z,990.48
2018-12-02T00:31:51.412Z,990.46
2018-12-02T00:32:57.422Z,990.46
2018-12-02T00:34:03.593Z,990.45
2018-12-02T00:35:09.743Z,990.44
2018-12-02T00:36:15.914Z,990.44
2018-12-02T00:37:22.088Z,990.45
2018-12-02T00:38:28.241Z,990.41
2018-12-02T00:39:34.405Z,990.41
2018-12-02T00:40:40.571Z,990.40
2018-12-02T00:41:47.089Z,990.35
2018-12-02T00:42:52.887Z,990.39
2018-12-02T00:43:59.046Z,990.34
2018-12-02T00:45:05.212Z,990.36
2018-12-02T00:46:11.377Z,990.36
2018-12-02T00:47:17.539Z,990.26
2018-12-02T00:48:23.699Z,990.28
2018-12-02T00:49:29.864Z,990.25
2018-12-02T00:50:36.027Z,990.21
2018-12-02T00:51:42.190Z,990.19
2018-12-02T00:52:48.343Z,990.12
2018-12-02T00:53:54.509Z,990.09
2018-12-02T00:55:00.666Z,990.06
2018-12-02T00:56:06.834Z,990.02
2018-12-02T00:57:12.992Z,990.05
2018-12-02T00:58:19.154Z,990.02
2018-12-02T00:59:25.306Z,989.98
2018-12-02T01:00:31.475Z,989.96
2018-12-02T01:01:38.641Z,989.99
2018-12-02T01:02:43.796Z,989.98
2018-12-02T01:03:49.958Z,989.99
2018-12-02T01:04:56.110Z,989.98
2018-12-02T01:06:02.272Z,989.97
2018-12-02T01:07:08.437Z,989.91
2018-12-02T01:08:14.594Z,989.89
2018-12-02T01:09:20.759Z,989.88
2018-12-02T01:10:26.937Z,989.87
2018-12-02T01:11:33.088Z,989.88
2018-12-02T01:12:39.253Z,989.88
2018-12-02T01:13:45.401Z,989.89
2018-12-02T01:14:51.573Z,989.84
2018-12-02T01:15:57.730Z,989.85
2018-12-02T01:17:03.889Z,989.85
2018-12-02T01:18:10.054Z,989.84
2018-12-02T01:19:16.207Z,989.85
2018-12-02T01:20:22.413Z,989.84
2018-12-02T01:21:28.552Z,989.83
2018-12-02T01:22:34.704Z,989.81
2018-12-02T01:23:40.862Z,989.75
2018-12-02T01:24:47.026Z,989.74
2018-12-02T01:25:53.191Z,989.71
2018-12-02T01:26:59.342Z,989.67
2018-12-02T01:28:05.507Z,989.67
2018-12-02T01:29:11.666Z,989.66
2018-12-02T01:30:17.839Z,989.65
2018-12-02T01:31:24.007Z,989.63
2018-12-02T01:32:30.158Z,989.65
2018-12-02T01:33:36.330Z,989.61
2018-12-02T01:34:42.489Z,989.64
2018-12-02T01:35:48.657Z,989.62
2018-12-02T01:36:54.818Z,989.59
2018-12-02T01:38:00.971Z,989.58
2018-12-02T01:39:07.151Z,989.49
2018-12-02T01:40:13.316Z,989.49
2018-12-02T01:41:19.477Z,989.51
2018-12-02T01:42:26.653Z,989.52
2018-12-02T01:43:31.812Z,989.48
2018-12-02T01:44:37.987Z,989.52
2018-12-02T01:45:44.140Z,989.51
2018-12-02T01:46:50.307Z,989.47
2018-12-02T01:47:56.591Z,989.47
2018-12-02T01:49:02.639Z,989.44
2018-12-02T01:50:09.800Z,989.42
2018-12-02T01:51:14.983Z,989.42
2018-12-02T01:52:21.131Z,989.37
2018-12-02T01:53:27.285Z,989.32
2018-12-02T01:54:33.455Z,989.29
2018-12-02T01:55:39.637Z,989.27
2018-12-02T01:56:45.805Z,989.32
2018-12-02T01:57:51.953Z,989.22
2018-12-02T01:58:58.117Z,989.26
2018-12-02T02:00:04.307Z,989.22
2018-12-02T02:01:10.439Z,989.20
2018-12-02T02:02:16.617Z,989.17
2018-12-02T02:03:22.775Z,989.16
2018-12-02T02:04:28.947Z,989.09
2018-12-02T02:05:35.113Z,989.08
2018-12-02T02:06:41.282Z,989.10
2018-12-02T02:07:47.449Z,989.08
2018-12-02T02:08:53.604Z,989.07
2018-12-02T02:09:59.771Z,989.03
2018-12-02T02:11:05.942Z,989.03
2018-12-02T02:12:12.119Z,988.99
2018-12-02T02:13:18.277Z,988.96
2018-12-02T02:14:24.433Z,988.93
2018-12-02T02:15:30.608Z,988.93
2018-12-02T02:16:36.763Z,988.88
2018-12-02T02:17:42.936Z,988.89
2018-12-02T02:18:49.105Z,988.87
2018-12-02T02:19:55.277Z,988.89
2018-12-02T02:21:02.431Z,988.86
2018-12-02T02:22:07.620Z,988.85
2018-12-02T02:23:13.812Z,988.83
2018-12-02T02:24:19.930Z,988.89
2018-12-02T02:25:26.094Z,988.85
2018-12-02T02:26:32.277Z,988.88
2018-12-02T02:27:38.438Z,988.83
2018-12-02T02:28:44.601Z,988.77
2018-12-02T02:29:51.773Z,988.79
2018-12-02T02:30:56.940Z,988.79
2018-12-02T02:32:03.108Z,988.81
2018-12-02T02:33:09.278Z,988.78
2018-12-02T02:34:15.436Z,988.77
2018-12-02T02:35:21.610Z,988.75
2018-12-02T02:36:27.771Z,988.73
2018-12-02T02:37:33.958Z,988.74
2018-12-02T02:38:40.101Z,988.77
2018-12-02T02:39:46.276Z,988.82
2018-12-02T02:40:52.444Z,988.76
2018-12-02T02:41:58.613Z,988.75
2018-12-02T02:43:04.794Z,988.72
2018-12-02T02:44:10.967Z,988.69
2018-12-02T02:45:17.111Z,988.62
2018-12-02T02:46:23.292Z,988.64
2018-12-02T02:47:29.457Z,988.61
2018-12-02T02:48:35.626Z,988.56
2018-12-02T02:49:41.803Z,988.43
2018-12-02T02:50:47.959Z,988.50
2018-12-02T02:51:54.122Z,988.46
2018-12-02T02:53:00.318Z,988.42
2018-12-02T02:54:06.576Z,988.38
2018-12-02T02:55:12.622Z,988.33
2018-12-02T02:56:18.803Z,988.31
2018-12-02T02:57:24.994Z,988.25
2018-12-02T02:58:31.136Z,988.31
2018-12-02T02:59:37.312Z,988.36
2018-12-02T03:00:43.478Z,988.35
2018-12-02T03:01:49.657Z,988.34
2018-12-02T03:02:55.823Z,988.26
2018-12-02T03:04:01.975Z,988.29
2018-12-02T03:05:08.147Z,988.28
2018-12-02T03:06:14.316Z,988.27
2018-12-02T03:07:20.591Z,988.23
2018-12-02T03:08:27.668Z,988.18
2018-12-02T03:09:32.832Z,988.14
2018-12-02T03:10:38.991Z,988.15
2018-12-02T03:11:45.185Z,988.15
2018-12-02T03:12:51.346Z,988.17
2018-12-02T03:13:57.514Z,988.12
2018-12-02T03:15:03.674Z,988.11
2018-12-02T03:16:09.844Z,988.06
2018-12-02T03:17:16.018Z,988.09
2018-12-02T03:18:22.194Z,988.05
2018-12-02T03:19:28.353Z,988.05
2018-12-02T03:20:34.523Z,988.05
2018-12-02T03:21:40.685Z,988.06
2018-12-02T03:22:46.854Z,988.05
2018-12-02T03:23:53.043Z,988.01
2018-12-02T03:24:59.208Z,988.04
2018-12-02T03:26:05.363Z,987.97
2018-12-02T03:27:11.538Z,987.96
2018-12-02T03:28:17.710Z,987.96
2018-12-02T03:29:23.864Z,987.90
2018-12-02T03:30:30.049Z,987.90
2018-12-02T03:31:36.208Z,987.90
2018-12-02T03:32:42.388Z,987.82
2018-12-02T03:33:49.562Z,987.82
2018-12-02T03:34:54.711Z,987.83
2018-12-02T03:36:00.892Z,987.82
2018-12-02T03:37:07.059Z,987.78
2018-12-02T03:38:13.225Z,987.82
2018-12-02T03:39:19.403Z,987.82
2018-12-02T03:40:25.561Z,987.78
2018-12-02T03:41:31.727Z,987.70
2018-12-02T03:42:37.886Z,987.73
2018-12-02T03:43:44.070Z,987.75
2018-12-02T03:44:50.230Z,987.72
2018-12-02T03:45:56.410Z,987.73
2018-12-02T03:47:02.564Z,987.71
2018-12-02T03:48:08.731Z,987.78
2018-12-02T03:49:15.075Z,987.72
2018-12-02T03:50:21.067Z,987.76
2018-12-02T03:51:27.240Z,987.67
2018-12-02T03:52:33.415Z,987.70
2018-12-02T03:53:39.572Z,987.68
2018-12-02T03:54:45.748Z,987.78
2018-12-02T03:55:51.904Z,987.78
2018-12-02T03:56:58.078Z,987.73
2018-12-02T03:58:04.260Z,987.76
2018-12-02T03:59:10.420Z,987.71
2018-12-02T04:00:16.591Z,987.70
2018-12-02T04:01:22.764Z,987.67
2018-12-02T04:02:28.925Z,987.66
2018-12-02T04:03:35.086Z,987.67
2018-12-02T04:04:41.270Z,987.66
2018-12-02T04:05:47.433Z,987.61
2018-12-02T04:06:53.593Z,987.61
2018-12-02T04:07:59.774Z,987.60
2018-12-02T04:09:05.937Z,987.54
2018-12-02T04:10:12.116Z,987.61
2018-12-02T04:11:18.292Z,987.60
2018-12-02T04:12:24.569Z,987.64
2018-12-02T04:13:30.618Z,987.64
2018-12-02T04:14:36.782Z,987.57
2018-12-02T04:15:42.969Z,987.59
2018-12-02T04:16:49.125Z,987.55
2018-12-02T04:17:55.334Z,987.51
2018-12-02T04:19:01.474Z,987.56
2018-12-02T04:20:07.654Z,987.59
2018-12-02T04:21:13.818Z,987.53
2018-12-02T04:22:19.985Z,987.51
2018-12-02T04:23:26.148Z,987.48
2018-12-02T04:24:32.330Z,987.48
2018-12-02T04:25:38.507Z,987.52
2018-12-02T04:26:44.670Z,987.51
2018-12-02T04:27:50.854Z,987.48
2018-12-02T04:28:57.012Z,987.51
2018-12-02T04:30:03.183Z,987.47
2018-12-02T04:31:09.410Z,987.44
2018-12-02T04:32:15.529Z,987.43
2018-12-02T04:33:21.695Z,987.42
2018-12-02T04:34:27.868Z,987.42
2018-12-02T04:35:34.039Z,987.39
2018-12-02T04:36:40.215Z,987.37
2018-12-02T04:37:46.384Z,987.35
2018-12-02T04:38:52.546Z,987.28
2018-12-02T04:39:58.727Z,987.29
2018-12-02T04:41:04.894Z,987.25
2018-12-02T04:42:11.054Z,987.23
2018-12-02T04:43:17.242Z,987.26
2018-12-02T04:44:23.396Z,987.23
2018-12-02T04:45:29.574Z,987.17
2018-12-02T04:46:35.738Z,987.19
2018-12-02T04:47:41.906Z,987.14
2018-12-02T04:48:48.090Z,987.16
2018-12-02T04:49:54.249Z,987.11
2018-12-02T04:51:00.421Z,987.12
2018-12-02T04:52:06.590Z,987.07
2018-12-02T04:53:12.756Z,987.06
2018-12-02T04:54:19.238Z,987.05
2018-12-02T04:55:25.116Z,986.99
2018-12-02T04:56:31.276Z,987.01
2018-12-02T04:57:37.449Z,987.00
2018-12-02T04:58:44.624Z,987.03
2018-12-02T04:59:49.807Z,987.02
2018-12-02T05:00:55.975Z,986.95
2018-12-02T05:02:02.140Z,986.98
2018-12-02T05:03:08.308Z,986.92
2018-12-02T05:04:14.581Z,986.91
2018-12-02T05:05:20.660Z,986.89
2018-12-02T05:06:26.835Z,986.86
2018-12-02T05:07:33.006Z,986.83
2018-12-02T05:08:39.185Z,986.81
2018-12-02T05:09:45.346Z,986.81
2018-12-02T05:10:51.526Z,986.77
2018-12-02T05:11:57.694Z,986.81
2018-12-02T05:13:03.864Z,986.77
2018-12-02T05:14:10.029Z,986.80
2018-12-02T05:15:16.202Z,986.75
2018-12-02T05:16:22.378Z,986.77
2018-12-02T05:17:28.539Z,986.75
2018-12-02T05:18:34.717Z,986.67
2018-12-02T05:19:40.888Z,986.68
2018-12-02T05:20:47.050Z,986.65
2018-12-02T05:21:53.230Z,986.67
2018-12-02T05:22:59.395Z,986.63
2018-12-02T05:24:05.567Z,986.57
2018-12-02T05:25:16.971Z,986.58
2018-12-02T05:26:17.909Z,986.53
2018-12-02T05:27:24.081Z,986.52
2018-12-02T05:28:30.256Z,986.42
2018-12-02T05:29:36.422Z,986.43
2018-12-02T05:30:42.788Z,986.44
2018-12-02T05:31:48.779Z,986.44
2018-12-02T05:32:54.949Z,986.42
2018-12-02T05:34:01.107Z,986.45
2018-12-02T05:35:07.280Z,986.46
2018-12-02T05:36:13.459Z,986.44
2018-12-02T05:37:19.641Z,986.47
2018-12-02T05:38:25.800Z,986.41
2018-12-02T05:39:31.963Z,986.43
2018-12-02T05:40:38.133Z,986.42
2018-12-02T05:41:44.319Z,986.42
2018-12-02T05:42:50.579Z,986.43
2018-12-02T05:43:56.658Z,986.44
2018-12-02T05:45:02.832Z,986.41
2018-12-02T05:46:09.006Z,986.41
2018-12-02T05:47:15.182Z,986.36
2018-12-02T05:48:21.349Z,986.35
2018-12-02T05:49:27.526Z,986.37
2018-12-02T05:50:33.678Z,986.37
2018-12-02T05:51:39.848Z,986.35
2018-12-02T05:52:46.029Z,986.36
2018-12-02T05:53:52.197Z,986.34
2018-12-02T05:54:58.365Z,986.30
2018-12-02T05:56:04.534Z,986.20
2018-12-02T05:57:10.716Z,986.23
2018-12-02T05:58:16.869Z,986.25
2018-12-02T05:59:23.046Z,986.25
2018-12-02T06:00:29.224Z,986.17
2018-12-02T06:01:35.394Z,986.18
2018-12-02T06:02:41.561Z,986.19
2018-12-02T06:03:47.724Z,986.17
2018-12-02T06:04:53.907Z,986.20
2018-12-02T06:06:00.064Z,986.17
2018-12-02T06:07:06.235Z,986.17
2018-12-02T06:08:12.408Z,986.19
2018-12-02T06:09:18.576Z,986.11
2018-12-02T06:10:24.753Z,986.08
2018-12-02T06:11:30.925Z,986.10
2018-12-02T06:12:37.101Z,986.04
2018-12-02T06:13:43.260Z,986.04
2018-12-02T06:14:49.439Z,986.03
2018-12-02T06:15:55.802Z,986.00
2018-12-02T06:17:01.777Z,986.04
2018-12-02T06:18:07.956Z,985.97
2018-12-02T06:19:14.119Z,986.00
2018-12-02T06:20:20.295Z,985.98
2018-12-02T06:21:26.579Z,986.05
2018-12-02T06:22:32.635Z,986.05
2018-12-02T06:23:38.827Z,986.02
2018-12-02T06:24:44.985Z,986.01
2018-12-02T06:25:51.151Z,985.95
2018-12-02T06:26:57.341Z,985.99
2018-12-02T06:28:03.510Z,985.92
2018-12-02T06:29:09.683Z,985.91
2018-12-02T06:30:15.847Z,985.89
2018-12-02T06:31:22.013Z,985.86
2018-12-02T06:32:28.655Z,985.87
2018-12-02T06:33:34.371Z,985.81
2018-12-02T06:34:40.544Z,985.82
2018-12-02T06:35:46.715Z,985.81
2018-12-02T06:36:52.887Z,985.76
2018-12-02T06:37:59.065Z,985.78
2018-12-02T06:39:05.229Z,985.77
2018-12-02T06:40:11.403Z,985.74
2018-12-02T06:41:17.563Z,985.77
2018-12-02T06:42:23.757Z,985.76
2018-12-02T06:43:29.924Z,985.76
2018-12-02T06:44:37.094Z,985.76
2018-12-02T06:45:42.270Z,985.73
2018-12-02T06:46:48.437Z,985.72
2018-12-02T06:47:54.630Z,985.74
2018-12-02T06:49:00.794Z,985.76
2018-12-02T06:50:06.971Z,985.73
2018-12-02T06:51:13.142Z,985.74
2018-12-02T06:52:19.311Z,985.69
2018-12-02T06:53:25.499Z,985.74
2018-12-02T06:54:31.679Z,985.71
2018-12-02T06:55:37.838Z,985.74
2018-12-02T06:56:44.009Z,985.75
2018-12-02T06:57:50.197Z,985.76
2018-12-02T06:58:56.363Z,985.68
2018-12-02T07:00:02.537Z,985.65
2018-12-02T07:01:08.704Z,985.69
2018-12-02T07:02:14.879Z,985.57
2018-12-02T07:03:21.063Z,985.71
2018-12-02T07:04:27.233Z,985.77
2018-12-02T07:05:33.412Z,985.69
2018-12-02T07:06:39.567Z,985.76
2018-12-02T07:07:45.752Z,985.78
2018-12-02T07:08:51.932Z,985.75
2018-12-02T07:09:58.103Z,985.71
2018-12-02T07:11:04.273Z,985.64
2018-12-02T07:12:10.439Z,985.71
2018-12-02T07:13:16.632Z,985.63
2018-12-02T07:14:22.799Z,985.61
2018-12-02T07:15:28.970Z,985.61
2018-12-02T07:16:35.144Z,985.58
2018-12-02T07:17:41.320Z,985.60
2018-12-02T07:18:47.505Z,985.54
2018-12-02T07:19:53.675Z,985.63
2018-12-02T07:20:59.843Z,985.66
2018-12-02T07:22:06.028Z,985.55
2018-12-02T07:23:12.211Z,985.54
2018-12-02T07:24:18.389Z,985.56
2018-12-02T07:25:24.548Z,985.58
2018-12-02T07:26:30.744Z,985.51
2018-12-02T07:27:37.917Z,985.58
2018-12-02T07:28:43.095Z,985.58
2018-12-02T07:29:49.253Z,985.53
2018-12-02T07:30:55.444Z,985.53
2018-12-02T07:32:01.614Z,985.52
2018-12-02T07:33:07.801Z,985.58
2018-12-02T07:34:13.969Z,985.55
2018-12-02T07:35:20.148Z,985.56
2018-12-02T07:36:27.334Z,985.56
2018-12-02T07:37:32.635Z,985.56
2018-12-02T07:38:38.682Z,985.55
2018-12-02T07:39:44.856Z,985.47
2018-12-02T07:40:51.037Z,985.41
2018-12-02T07:41:57.213Z,985.47
2018-12-02T07:43:03.401Z,985.47
2018-12-02T07:44:09.579Z,985.42
2018-12-02T07:45:15.760Z,985.41
2018-12-02T07:46:21.919Z,985.40
2018-12-02T07:47:28.105Z,985.41
2018-12-02T07:48:34.292Z,985.44
2018-12-02T07:49:40.462Z,985.36
2018-12-02T07:50:46.634Z,985.38
2018-12-02T07:51:52.828Z,985.35
2018-12-02T07:52:58.987Z,985.41
2018-12-02T07:54:05.213Z,985.36
2018-12-02T07:55:11.349Z,985.48
2018-12-02T07:56:17.532Z,985.44
2018-12-02T07:57:23.712Z,985.38
2018-12-02T07:58:29.883Z,985.36
2018-12-02T07:59:36.072Z,985.37
2018-12-02T08:00:43.248Z,985.34
2018-12-02T08:01:48.441Z,985.33
2018-12-02T08:02:54.616Z,985.40
2018-12-02T08:04:00.799Z,985.32
2018-12-02T08:05:06.993Z,985.33
2018-12-02T08:06:13.153Z,985.30
2018-12-02T08:07:19.339Z,985.30
2018-12-02T08:08:25.527Z,985.28
2018-12-02T08:09:31.705Z,985.27
2018-12-02T08:10:37.886Z,985.20
2018-12-02T08:11:44.094Z,985.17
2018-12-02T08:12:50.286Z,985.18
2018-12-02T08:13:56.443Z,985.19
2018-12-02T08:15:02.628Z,985.20
2018-12-02T08:16:08.828Z,985.21
2018-12-02T08:17:15.000Z,985.15
2018-12-02T08:18:21.196Z,985.21
2018-12-02T08:19:27.378Z,985.12
2018-12-02T08:20:33.583Z,985.18
2018-12-02T08:21:39.779Z,985.10
2018-12-02T08:22:51.123Z,985.11
2018-12-02T08:23:52.141Z,985.06
2018-12-02T08:24:59.266Z,985.05
2018-12-02T08:26:04.507Z,985.00
2018-12-02T08:27:10.708Z,985.02
2018-12-02T08:28:16.887Z,985.01
2018-12-02T08:29:23.097Z,984.98
2018-12-02T08:30:29.275Z,985.08
2018-12-02T08:31:35.467Z,985.07
2018-12-02T08:32:42.651Z,985.11
2018-12-02T08:33:47.844Z,985.08
2018-12-02T08:34:54.150Z,985.08
2018-12-02T08:36:00.227Z,985.07
2018-12-02T08:37:06.414Z,985.03
2018-12-02T08:38:12.610Z,984.98
2018-12-02T08:39:18.805Z,985.02
2018-12-02T08:40:24.993Z,985.04
2018-12-02T08:41:31.187Z,985.05
2018-12-02T08:42:38.370Z,984.97
2018-12-02T08:43:43.572Z,985.04
2018-12-02T08:44:49.794Z,985.01
2018-12-02T08:45:55.976Z,985.07
2018-12-02T08:47:02.157Z,985.07
2018-12-02T08:48:08.367Z,985.02
2018-12-02T08:49:14.539Z,985.07
2018-12-02T08:50:20.751Z,985.03
2018-12-02T08:51:26.940Z,985.04
2018-12-02T08:52:33.643Z,985.01
2018-12-02T08:53:39.340Z,985.04
2018-12-02T08:54:45.535Z,985.03
2018-12-02T08:55:51.759Z,985.03
2018-12-02T08:56:57.940Z,984.97
2018-12-02T08:58:04.130Z,984.97
2018-12-02T08:59:10.348Z,984.92
2018-12-02T09:00:16.549Z,984.94
2018-12-02T09:01:22.756Z,984.93
2018-12-02T09:02:28.953Z,984.87
2018-12-02T09:03:35.155Z,984.83
2018-12-02T09:04:41.367Z,984.91
2018-12-02T09:05:47.566Z,984.84
2018-12-02T09:06:53.771Z,984.79
2018-12-02T09:07:59.963Z,984.86
2018-12-02T09:09:06.161Z,984.83
2018-12-02T09:10:12.367Z,984.80
2018-12-02T09:11:18.571Z,984.82
2018-12-02T09:12:24.771Z,984.83
2018-12-02T09:13:30.963Z,984.88
2018-12-02T09:14:37.162Z,984.86
2018-12-02T09:15:43.354Z,984.84
2018-12-02T09:16:49.553Z,984.77
2018-12-02T09:17:55.748Z,984.79
2018-12-02T09:19:01.947Z,984.81
2018-12-02T09:20:08.144Z,984.81
2018-12-02T09:21:14.357Z,984.83
2018-12-02T09:22:20.546Z,984.81
2018-12-02T09:23:26.736Z,984.85
2018-12-02T09:24:32.940Z,984.86
2018-12-02T09:25:39.147Z,984.78
2018-12-02T09:26:46.331Z,984.79
2018-12-02T09:27:51.560Z,984.82
2018-12-02T09:28:58.740Z,984.77
2018-12-02T09:30:03.953Z,984.80
2018-12-02T09:31:11.167Z,984.84
2018-12-02T09:32:16.354Z,984.90
2018-12-02T09:33:22.552Z,984.86
2018-12-02T09:34:28.748Z,984.87
2018-12-02T09:35:34.944Z,984.88
2018-12-02T09:36:41.153Z,984.88
2018-12-02T09:37:47.351Z,984.86
2018-12-02T09:38:53.546Z,984.90
2018-12-02T09:39:59.745Z,984.88
2018-12-02T09:41:05.955Z,984.90
2018-12-02T09:42:12.144Z,984.90
2018-12-02T09:43:18.338Z,984.87
2018-12-02T09:44:24.538Z,984.85
2018-12-02T09:45:30.753Z,984.93
2018-12-02T09:46:36.934Z,984.92
2018-12-02T09:47:43.127Z,984.93
2018-12-02T09:48:49.324Z,984.88
2018-12-02T09:49:55.520Z,984.81
2018-12-02T09:51:01.721Z,984.81
2018-12-02T09:52:08.411Z,984.77
2018-12-02T09:53:14.111Z,984.78
2018-12-02T09:54:23.306Z,984.76
2018-12-02T09:55:26.505Z,984.78
2018-12-02T09:56:32.711Z,984.70
2018-12-02T09:57:38.899Z,984.70
2018-12-02T09:58:45.115Z,984.63
2018-12-02T09:59:52.301Z,984.58
2018-12-02T10:00:57.515Z,984.59
2018-12-02T10:02:03.910Z,984.64
2018-12-02T10:03:09.911Z,984.66
2018-12-02T10:04:16.124Z,984.61
2018-12-02T10:05:22.308Z,984.54
2018-12-02T10:06:28.504Z,984.46
2018-12-02T10:07:34.728Z,984.40
2018-12-02T10:08:40.910Z,984.45
2018-12-02T10:09:47.124Z,984.40
2018-12-02T10:10:53.328Z,984.45
2018-12-02T10:11:59.533Z,984.46
2018-12-02T10:13:05.742Z,984.50
2018-12-02T10:14:11.929Z,984.44
2018-12-02T10:15:18.149Z,984.35
2018-12-02T10:16:24.335Z,984.44
2018-12-02T10:17:30.567Z,984.42
2018-12-02T10:18:36.756Z,984.43
2018-12-02T10:19:42.969Z,984.51
2018-12-02T10:20:49.170Z,984.44
2018-12-02T10:21:55.379Z,984.41
2018-12-02T10:23:01.588Z,984.45
2018-12-02T10:24:07.782Z,984.46
2018-12-02T10:25:13.993Z,984.48
2018-12-02T10:26:20.205Z,984.39
2018-12-02T10:27:27.421Z,984.35
2018-12-02T10:28:32.614Z,984.43
2018-12-02T10:29:38.838Z,984.44
2018-12-02T10:30:45.034Z,984.41
2018-12-02T10:31:51.272Z,984.38
2018-12-02T10:32:57.464Z,984.39
2018-12-02T10:34:03.671Z,984.53
2018-12-02T10:35:09.881Z,984.33
2018-12-02T10:36:16.088Z,984.27
2018-12-02T10:37:22.309Z,984.31
2018-12-02T10:38:28.506Z,984.36
2018-12-02T10:39:34.718Z,984.19
2018-12-02T10:40:40.932Z,984.20
2018-12-02T10:41:47.136Z,984.14
2018-12-02T10:42:53.355Z,984.07
2018-12-02T10:43:59.550Z,984.22
2018-12-02T10:45:05.776Z,984.15
2018-12-02T10:46:13.455Z,984.11
2018-12-02T10:47:18.192Z,984.07
2018-12-02T10:48:24.406Z,984.13
2018-12-02T10:49:30.617Z,984.09
2018-12-02T10:50:36.825Z,984.07
2018-12-02T10:51:43.031Z,984.08
2018-12-02T10:52:49.268Z,984.04
2018-12-02T10:53:55.467Z,983.99
2018-12-02T10:55:01.689Z,984.00
2018-12-02T10:56:07.905Z,984.00
2018-12-02T10:57:14.122Z,984.01
2018-12-02T10:58:20.346Z,984.10
2018-12-02T10:59:26.562Z,984.08
2018-12-02T11:00:32.782Z,984.04
2018-12-02T11:01:39.022Z,984.04
2018-12-02T11:02:45.230Z,984.06
2018-12-02T11:03:51.464Z,984.08
2018-12-02T11:04:57.770Z,984.08
2018-12-02T11:06:03.911Z,984.04
2018-12-02T11:07:10.150Z,984.03
2018-12-02T11:08:17.838Z,984.01
2018-12-02T11:09:22.597Z,984.04
2018-12-02T11:10:28.859Z,984.08
2018-12-02T11:11:35.067Z,984.04
2018-12-02T11:12:41.275Z,984.02
2018-12-02T11:13:47.516Z,983.95
2018-12-02T11:14:53.729Z,984.04
2018-12-02T11:15:59.998Z,984.07
2018-12-02T11:17:06.329Z,984.07
2018-12-02T11:18:12.467Z,984.11
2018-12-02T11:19:18.719Z,984.04
2018-12-02T11:20:24.906Z,984.06
2018-12-02T11:21:32.111Z,984.00
2018-12-02T11:22:37.354Z,984.07
2018-12-02T11:23:43.595Z,984.02
2018-12-02T11:24:49.812Z,984.01
2018-12-02T11:25:56.080Z,984.03
2018-12-02T11:27:02.830Z,984.03
2018-12-02T11:28:08.545Z,983.98
2018-12-02T11:29:14.759Z,984.09
2018-12-02T11:30:20.985Z,984.07
2018-12-02T11:31:27.213Z,984.08
2018-12-02T11:32:33.453Z,984.03
2018-12-02T11:33:40.697Z,984.07
2018-12-02T11:34:45.929Z,984.05
2018-12-02T11:35:52.172Z,984.11
2018-12-02T11:36:58.409Z,984.07
2018-12-02T11:38:04.646Z,984.00
2018-12-02T11:39:10.895Z,984.03
2018-12-02T11:40:17.126Z,983.98
2018-12-02T11:41:23.382Z,984.04
2018-12-02T11:42:29.635Z,984.02
2018-12-02T11:43:35.888Z,983.98
2018-12-02T11:44:42.126Z,983.99
2018-12-02T11:45:48.362Z,983.94
2018-12-02T11:46:54.619Z,983.95
2018-12-02T11:48:00.867Z,983.96
2018-12-02T11:49:07.119Z,983.94
2018-12-02T11:50:13.364Z,983.95
2018-12-02T11:51:19.622Z,983.90
2018-12-02T11:52:25.870Z,983.86
2018-12-02T11:53:32.312Z,983.85
2018-12-02T11:54:38.364Z,983.89
2018-12-02T11:55:44.612Z,983.88
2018-12-02T11:56:50.867Z,983.87
2018-12-02T11:57:57.123Z,983.91
2018-12-02T11:59:03.375Z,983.85
2018-12-02T12:00:10.101Z,983.84
2018-12-02T12:01:15.899Z,983.82
2018-12-02T12:02:22.159Z,983.77
2018-12-02T12:03:29.804Z,983.68
2018-12-02T12:04:34.707Z,983.68
2018-12-02T12:05:40.974Z,983.64
2018-12-02T12:06:47.242Z,983.61
2018-12-02T12:07:53.505Z,983.61
2018-12-02T12:08:59.780Z,983.63
2018-12-02T12:10:06.047Z,983.64
2018-12-02T12:11:12.300Z,983.65
2018-12-02T12:12:18.567Z,983.69
2018-12-02T12:13:24.823Z,983.72
2018-12-02T12:14:31.103Z,983.73
2018-12-02T12:15:37.349Z,983.70
2018-12-02T12:16:43.598Z,983.69
2018-12-02T12:17:49.852Z,983.77
2018-12-02T12:18:56.114Z,983.82
2018-12-02T12:20:02.378Z,983.74
2018-12-02T12:21:08.631Z,983.80
2018-12-02T12:22:14.874Z,983.77
2018-12-02T12:23:21.146Z,983.75
2018-12-02T12:24:27.397Z,983.79
2018-12-02T12:25:34.157Z,983.79
2018-12-02T12:26:39.920Z,983.69
2018-12-02T12:27:46.174Z,983.69
2018-12-02T12:28:52.446Z,983.64
2018-12-02T12:29:58.708Z,983.64
2018-12-02T12:31:04.962Z,983.64
2018-12-02T12:32:11.226Z,983.70
2018-12-02T12:33:18.591Z,983.63
2018-12-02T12:34:23.758Z,983.65
2018-12-02T12:35:30.035Z,983.67
2018-12-02T12:36:36.283Z,983.63
2018-12-02T12:37:42.548Z,983.70
2018-12-02T12:38:48.813Z,983.70
2018-12-02T12:39:55.092Z,983.68
2018-12-02T12:41:02.368Z,983.75
2018-12-02T12:42:07.647Z,983.65
2018-12-02T12:43:13.905Z,983.68
2018-12-02T12:44:20.174Z,983.66
2018-12-02T12:45:26.573Z,983.67
2018-12-02T12:46:32.738Z,983.67
2018-12-02T12:47:39.031Z,983.68
2018-12-02T12:48:45.283Z,983.69
2018-12-02T12:49:51.553Z,983.66
2018-12-02T12:50:57.830Z,983.66
2018-12-02T12:52:04.093Z,983.64
2018-12-02T12:53:10.364Z,983.65
2018-12-02T12:54:16.652Z,983.72
2018-12-02T12:55:22.892Z,983.71
2018-12-02T12:56:29.166Z,983.68
2018-12-02T12:57:35.423Z,983.74
2018-12-02T12:58:41.703Z,983.70
2018-12-02T12:59:47.970Z,983.66
2018-12-02T13:00:54.235Z,983.68
2018-12-02T13:02:00.499Z,983.71
2018-12-02T13:03:06.766Z,983.69
2018-12-02T13:04:13.030Z,983.68
2018-12-02T13:05:19.293Z,983.74
2018-12-02T13:06:25.566Z,983.67
2018-12-02T13:07:31.836Z,983.65
2018-12-02T13:08:38.106Z,983.68
2018-12-02T13:09:44.371Z,983.75
2018-12-02T13:10:50.664Z,983.79
2018-12-02T13:11:56.915Z,983.74
2018-12-02T13:13:03.186Z,983.72
2018-12-02T13:14:09.462Z,983.72
2018-12-02T13:15:15.746Z,983.73
2018-12-02T13:16:22.014Z,983.70
2018-12-02T13:17:28.290Z,983.61
2018-12-02T13:18:34.569Z,983.64
2018-12-02T13:19:40.846Z,983.72
2018-12-02T13:20:47.126Z,983.64
2018-12-02T13:21:53.396Z,983.70
2018-12-02T13:22:59.677Z,983.65
2018-12-02T13:24:05.966Z,983.68
2018-12-02T13:25:12.242Z,983.68
2018-12-02T13:26:18.524Z,983.71
2018-12-02T13:27:24.809Z,983.67
2018-12-02T13:28:31.075Z,983.76
2018-12-02T13:29:37.352Z,983.76
2018-12-02T13:30:44.115Z,983.80
2018-12-02T13:31:49.899Z,983.79
2018-12-02T13:32:56.160Z,983.84
2018-12-02T13:34:02.431Z,983.79
2018-12-02T13:35:08.704Z,983.82
2018-12-02T13:36:14.974Z,983.89
2018-12-02T13:37:21.249Z,983.80
2018-12-02T13:38:27.502Z,983.84
2018-12-02T13:39:33.776Z,983.75
2018-12-02T13:40:40.059Z,983.80
2018-12-02T13:41:46.327Z,983.78
2018-12-02T13:42:52.601Z,983.82
2018-12-02T13:43:58.870Z,983.83
2018-12-02T13:45:05.143Z,983.88
2018-12-02T13:46:11.435Z,983.87